Time;durP1;ratioP1;P1;durP2;ratioP2;P2;SDS_P1;SDS_P2;PMS_P1;PMS_P2;Temp;Humidity;BMP_temperature;BMP_pressure;BME280_temperature;BME280_humidity;BME280_pressure;Samples;Min_cycle;Max_cycle;Signal;HPM_P1;HPM_P2
2023/03/09 00:01:17;;;;;;;7.90;2.25;;;;;;;12.54;53.51;96950.41;4489475;31;20155;-80
2023/03/09 00:03:43;;;;;;;7.57;2.10;;;;;;;12.49;53.55;96950.81;4503399;31;20387;-80
2023/03/09 00:06:11;;;;;;;6.95;2.08;;;;;;;12.69;52.87;96956.91;4503428;31;20106;-80
2023/03/09 00:08:37;;;;;;;10.10;2.58;;;;;;;12.40;53.68;96956.97;4503386;31;20159;-80
2023/03/09 00:11:04;;;;;;;7.55;2.35;;;;;;;12.47;53.71;96936.09;4503268;31;20092;-80
2023/03/09 00:13:29;;;;;;;10.25;2.55;;;;;;;12.46;53.68;96940.56;4488993;31;20164;-80
2023/03/09 00:15:55;;;;;;;7.95;2.30;;;;;;;12.46;53.74;96934.41;4503207;31;20119;-80
2023/03/09 00:18:21;;;;;;;7.43;2.10;;;;;;;12.45;53.76;96940.69;4503199;31;20098;-80
2023/03/09 00:20:47;;;;;;;8.98;2.22;;;;;;;12.40;53.86;96954.31;4488886;31;20372;-80
2023/03/09 00:23:13;;;;;;;9.57;2.20;;;;;;;12.37;54.05;96949.31;4488910;31;20162;-80
2023/03/09 00:25:39;;;;;;;12.57;2.53;;;;;;;12.47;53.67;96942.19;4503289;31;20358;-80
2023/03/09 00:28:05;;;;;;;7.70;2.42;;;;;;;12.69;53.15;96930.50;4488886;31;20104;-80
2023/03/09 00:30:31;;;;;;;8.50;2.62;;;;;;;12.37;53.89;96939.56;4503343;31;20096;-80
2023/03/09 00:32:56;;;;;;;7.53;2.22;;;;;;;12.66;53.30;96932.59;4503227;31;20117;-80
2023/03/09 00:35:21;;;;;;;8.40;2.42;;;;;;;12.64;53.21;96937.19;4503218;31;20080;-80
2023/03/09 00:37:47;;;;;;;10.25;2.65;;;;;;;12.29;54.23;96933.34;4488882;31;20104;-80
2023/03/09 00:40:14;;;;;;;8.50;2.60;;;;;;;12.44;53.89;96931.94;4503003;31;20410;-80
2023/03/09 00:42:43;;;;;;;8.20;2.15;;;;;;;12.28;54.31;96936.94;4503413;31;20087;-80
2023/03/09 00:45:09;;;;;;;10.15;2.80;;;;;;;12.41;54.05;96926.09;4489076;31;20087;-80
2023/03/09 00:47:35;;;;;;;8.27;2.45;;;;;;;12.59;53.45;96925.25;4488921;31;20106;-80
2023/03/09 00:50:01;;;;;;;7.40;2.28;;;;;;;12.75;52.95;96914.06;4503038;31;20457;-80
2023/03/09 00:52:27;;;;;;;7.22;2.42;;;;;;;12.46;53.62;96908.84;4488968;31;20104;-80
2023/03/09 00:54:53;;;;;;;8.05;2.47;;;;;;;12.83;52.74;96910.72;4503255;31;20095;-80
2023/03/09 00:57:22;;;;;;;9.52;2.70;;;;;;;12.37;54.10;96907.88;4488928;31;20122;-80
2023/03/09 00:59:48;;;;;;;5.95;2.28;;;;;;;12.67;53.25;96897.25;4503108;31;20123;-80
2023/03/09 01:02:14;;;;;;;8.73;2.35;;;;;;;12.66;53.31;96899.06;4503219;31;20092;-80
2023/03/09 01:04:39;;;;;;;7.53;2.42;;;;;;;12.36;54.04;96897.47;4488915;31;20099;-80
2023/03/09 01:07:05;;;;;;;8.13;2.17;;;;;;;12.49;53.81;96895.34;4488745;31;20092;-80
2023/03/09 01:09:30;;;;;;;7.50;2.30;;;;;;;12.65;53.25;96886.84;4503258;31;20140;-80
2023/03/09 01:11:56;;;;;;;8.38;2.42;;;;;;;12.24;54.49;96888.03;4502647;31;20088;-80
2023/03/09 01:14:21;;;;;;;8.63;2.37;;;;;;;11.95;55.36;96907.34;4502857;31;20114;-80
2023/03/09 01:16:47;;;;;;;7.45;2.20;;;;;;;12.11;54.96;96905.00;4502870;31;20087;-80
2023/03/09 01:19:12;;;;;;;8.65;2.67;;;;;;;12.06;55.15;96901.94;4488430;31;20393;-80
2023/03/09 01:21:38;;;;;;;10.23;2.25;;;;;;;12.47;53.99;96889.38;4488666;31;20613;-81
2023/03/09 01:24:04;;;;;;;8.43;2.37;;;;;;;12.45;54.04;96867.56;4502853;31;20080;-80
2023/03/09 01:26:29;;;;;;;8.77;2.50;;;;;;;12.54;53.68;96874.63;4502746;31;20084;-80
2023/03/09 01:28:54;;;;;;;9.00;2.37;;;;;;;12.25;54.49;96874.69;4502690;31;20407;-81
2023/03/09 01:31:20;;;;;;;8.05;2.40;;;;;;;12.40;54.18;96867.19;4502546;31;20442;-80
2023/03/09 01:33:47;;;;;;;9.50;2.75;;;;;;;12.41;54.21;96857.44;4502746;31;20145;-80
2023/03/09 01:36:15;;;;;;;7.80;2.42;;;;;;;11.93;55.45;96854.72;4502812;31;20091;-80
2023/03/09 01:38:40;;;;;;;7.50;2.12;;;;;;;12.14;55.00;96854.56;4502867;31;20147;-81
2023/03/09 01:41:06;;;;;;;9.52;2.60;;;;;;;12.28;54.62;96860.37;4502981;31;20084;-80
2023/03/09 01:43:39;;;;;;;9.10;2.50;;;;;;;12.00;55.37;96857.66;4502636;31;20088;-80
2023/03/09 01:46:20;;;;;;;9.00;2.17;;;;;;;12.46;54.18;96855.19;4502691;31;20151;-80
2023/03/09 01:48:49;;;;;;;9.75;2.50;;;;;;;12.17;54.98;96854.28;4502695;31;20156;-80
2023/03/09 01:51:15;;;;;;;8.50;2.35;;;;;;;11.91;55.77;96842.62;4502555;31;20152;-80
2023/03/09 01:53:40;;;;;;;9.93;3.10;;;;;;;12.24;54.98;96837.87;4488080;31;20099;-80
2023/03/09 01:56:06;;;;;;;8.68;2.72;;;;;;;12.02;55.50;96834.59;4502531;31;20128;-80
2023/03/09 01:58:32;;;;;;;8.20;2.55;;;;;;;11.92;55.80;96829.31;4488157;31;20503;-80
2023/03/09 02:00:58;;;;;;;8.25;2.70;;;;;;;11.86;55.89;96834.28;4487992;31;20471;-80
2023/03/09 02:03:45;;;;;;;8.35;2.40;;;;;;;12.30;54.69;96817.00;4487369;31;20196;-80
2023/03/09 02:06:18;;;;;;;8.13;2.33;;;;;;;11.93;55.91;96807.22;4502718;31;20499;-81
2023/03/09 02:09:18;;;;;;;8.85;2.40;;;;;;;11.99;55.77;96809.31;4488500;31;20104;-81
2023/03/09 02:11:44;;;;;;;8.55;2.58;;;;;;;11.73;56.39;96813.47;4501961;31;20208;-80
2023/03/09 02:14:10;;;;;;;7.85;2.15;;;;;;;11.60;56.99;96814.56;4487997;31;20096;-80
2023/03/09 02:16:35;;;;;;;8.05;2.65;;;;;;;11.54;57.27;96814.28;4502409;31;20111;-80
2023/03/09 02:19:01;;;;;;;9.02;2.78;;;;;;;11.83;56.29;96816.09;4502340;31;20339;-80
2023/03/09 02:21:35;;;;;;;7.95;2.45;;;;;;;11.99;55.92;96809.31;4502210;31;20139;-80
2023/03/09 02:24:12;;;;;;;8.93;2.45;;;;;;;11.64;56.91;96806.38;4502414;31;20472;-80
2023/03/09 02:26:39;;;;;;;8.07;2.87;;;;;;;11.90;56.19;96804.88;4502132;31;20144;-80
2023/03/09 02:29:04;;;;;;;9.30;2.90;;;;;;;11.71;56.65;96807.50;4487903;31;20168;-80
2023/03/09 02:31:30;;;;;;;8.25;2.10;;;;;;;11.77;56.56;96799.84;4502057;31;20111;-80
2023/03/09 02:33:55;;;;;;;7.62;2.58;;;;;;;11.76;56.60;96810.53;4502046;31;20145;-80
2023/03/09 02:36:21;;;;;;;9.52;2.37;;;;;;;12.16;55.30;96810.38;4502189;31;20341;-80
2023/03/09 02:38:47;;;;;;;9.60;2.87;;;;;;;12.09;55.37;96819.84;4501901;31;20135;-80
2023/03/09 02:41:12;;;;;;;10.75;2.55;;;;;;;11.87;56.19;96817.47;4502108;31;20083;-81
2023/03/09 02:43:44;;;;;;;7.93;2.42;;;;;;;11.74;56.64;96810.69;4501913;31;20136;-80
2023/03/09 02:46:09;;;;;;;8.30;2.47;;;;;;;11.87;56.39;96815.66;4487619;31;20080;-80
2023/03/09 02:48:35;;;;;;;9.90;2.80;;;;;;;11.93;56.22;96804.56;4501868;31;20114;-81
2023/03/09 02:51:00;;;;;;;9.80;2.83;;;;;;;12.04;55.85;96808.06;4501820;31;20084;-80
2023/03/09 02:53:26;;;;;;;8.63;2.30;;;;;;;11.84;56.25;96810.69;4501902;31;20072;-80
2023/03/09 02:55:51;;;;;;;8.18;2.42;;;;;;;12.08;55.78;96818.19;4501530;31;20088;-80
2023/03/09 02:58:16;;;;;;;10.18;3.22;;;;;;;11.74;56.60;96812.47;4501440;31;20126;-80
2023/03/09 03:00:42;;;;;;;7.62;2.37;;;;;;;11.87;56.43;96820.94;4501554;31;20117;-80
2023/03/09 03:03:08;;;;;;;8.48;2.30;;;;;;;11.46;57.65;96827.34;4501624;31;20140;-80
2023/03/09 03:05:33;;;;;;;9.00;2.87;;;;;;;12.05;55.97;96831.66;4501721;31;20084;-80
2023/03/09 03:07:58;;;;;;;9.52;2.80;;;;;;;11.98;55.99;96826.12;4501524;31;20130;-80
2023/03/09 03:10:24;;;;;;;11.93;2.83;;;;;;;11.32;57.99;96824.13;4501585;31;20148;-80
2023/03/09 03:12:49;;;;;;;10.60;3.28;;;;;;;11.75;56.77;96817.63;4501638;31;20092;-80
2023/03/09 03:15:15;;;;;;;10.57;2.83;;;;;;;11.68;56.94;96827.06;4503528;31;20084;-81
2023/03/09 03:17:40;;;;;;;9.07;2.60;;;;;;;11.55;57.31;96834.41;4503815;31;20520;-80
2023/03/09 03:20:13;;;;;;;8.35;2.40;;;;;;;11.53;57.45;96846.91;4489358;31;20123;-80
2023/03/09 03:22:40;;;;;;;7.45;2.40;;;;;;;11.70;56.94;96838.31;4490328;31;20170;-80
2023/03/09 03:25:06;;;;;;;9.23;2.80;;;;;;;11.84;56.54;96828.31;4489727;31;20106;-80
2023/03/09 03:27:32;;;;;;;10.52;2.65;;;;;;;11.90;56.29;96822.50;4503936;31;20391;-80
2023/03/09 03:29:58;;;;;;;9.75;2.95;;;;;;;12.05;55.86;96838.75;4489681;31;20095;-80
2023/03/09 03:32:24;;;;;;;6.60;2.33;;;;;;;11.79;56.59;96839.28;4503884;31;20088;-80
2023/03/09 03:34:49;;;;;;;9.43;2.45;;;;;;;11.81;56.69;96840.81;4489485;31;20088;-80
2023/03/09 03:37:15;;;;;;;11.63;3.00;;;;;;;11.75;56.83;96836.09;4503740;31;20093;-80
2023/03/09 03:39:40;;;;;;;8.13;2.08;;;;;;;11.06;58.90;96858.03;4489000;31;20096;-80
2023/03/09 03:42:06;;;;;;;7.65;2.45;;;;;;;11.26;58.27;96845.78;4503574;31;20124;-80
2023/03/09 03:44:31;;;;;;;8.95;2.62;;;;;;;11.45;57.97;96849.41;4503585;31;20088;-80
2023/03/09 03:46:57;;;;;;;10.25;2.83;;;;;;;11.86;56.54;96860.66;4489038;31;20096;-80
2023/03/09 03:49:22;;;;;;;9.15;2.35;;;;;;;11.43;58.01;96848.69;4503505;31;20152;-80
2023/03/09 03:51:47;;;;;;;12.57;2.92;;;;;;;11.42;58.02;96850.50;4489056;31;20233;-80
2023/03/09 03:54:13;;;;;;;9.88;2.85;;;;;;;11.26;58.49;96835.22;4503485;31;20100;-80
2023/03/09 03:56:38;;;;;;;11.38;3.08;;;;;;;11.44;57.94;96816.94;4503430;31;20111;-80
2023/03/09 03:59:04;;;;;;;9.90;2.72;;;;;;;11.38;58.19;96818.31;4503194;31;20119;-80
2023/03/09 04:01:29;;;;;;;11.93;2.95;;;;;;;11.32;58.44;96818.00;4503485;31;20084;-80
2023/03/09 04:03:55;;;;;;;10.07;2.90;;;;;;;11.42;57.94;96821.50;4503566;31;20084;-80
2023/03/09 04:06:20;;;;;;;10.88;2.60;;;;;;;10.96;59.36;96825.56;4503342;31;20138;-80
2023/03/09 04:08:46;;;;;;;9.90;2.87;;;;;;;11.25;58.60;96812.47;4503375;31;20103;-80
2023/03/09 04:11:11;;;;;;;9.30;2.60;;;;;;;10.84;59.83;96822.22;4503247;31;20131;-80
2023/03/09 04:13:37;;;;;;;11.98;2.97;;;;;;;10.61;60.58;96813.69;4475775;31;20108;-80
2023/03/09 04:16:02;;;;;;;8.77;2.85;;;;;;;11.01;59.51;96818.94;4503471;31;20080;-80
2023/03/09 04:18:28;;;;;;;10.35;3.10;;;;;;;11.29;58.45;96811.22;4503226;31;20122;-80
2023/03/09 04:20:53;;;;;;;9.65;2.72;;;;;;;11.14;59.17;96809.94;4503542;31;20102;-80
2023/03/09 04:23:19;;;;;;;10.07;2.62;;;;;;;11.27;58.75;96801.78;4503606;31;20378;-80
2023/03/09 04:25:55;;;;;;;11.35;3.22;;;;;;;10.95;59.65;96800.19;4488515;31;20349;-80
2023/03/09 04:28:21;;;;;;;12.02;2.80;;;;;;;10.88;60.02;96794.63;4489394;31;20155;-80
2023/03/09 04:30:46;;;;;;;8.93;2.85;;;;;;;11.07;59.37;96791.22;4503275;31;20080;-80
2023/03/09 04:33:12;;;;;;;10.45;2.90;;;;;;;11.16;59.00;96795.69;4503438;31;20374;-80
2023/03/09 04:35:37;;;;;;;7.85;2.45;;;;;;;11.19;58.64;96803.28;4489100;31;20101;-80
2023/03/09 04:38:03;;;;;;;10.73;3.00;;;;;;;11.20;58.76;96810.25;4503445;31;20084;-80
2023/03/09 04:40:28;;;;;;;9.70;2.80;;;;;;;11.60;57.47;96790.00;4489029;31;20088;-80
2023/03/09 04:42:54;;;;;;;14.35;3.42;;;;;;;11.56;57.58;96781.53;4503252;31;20106;-80
2023/03/09 04:45:19;;;;;;;8.80;2.92;;;;;;;11.70;57.09;96769.72;4503273;31;20136;-80
2023/03/09 04:47:45;;;;;;;11.32;2.92;;;;;;;11.23;58.53;96766.12;4489103;31;20147;-80
2023/03/09 04:50:11;;;;;;;9.35;2.80;;;;;;;11.10;58.91;96758.47;4503393;31;20471;-80
2023/03/09 04:52:37;;;;;;;9.30;2.80;;;;;;;10.89;59.57;96790.19;4503320;31;20079;-81
2023/03/09 04:55:02;;;;;;;11.02;3.08;;;;;;;11.35;57.77;96779.03;4489003;31;20092;-80
2023/03/09 04:57:28;;;;;;;9.93;3.05;;;;;;;11.49;57.58;96777.81;4503370;31;20088;-80
2023/03/09 04:59:53;;;;;;;10.70;3.00;;;;;;;11.06;58.58;96786.06;4503072;31;20106;-81
2023/03/09 05:02:19;;;;;;;9.93;2.97;;;;;;;11.56;57.27;96776.25;4488537;31;20080;-80
2023/03/09 05:04:44;;;;;;;12.55;3.10;;;;;;;11.05;58.93;96792.31;4502947;31;20085;-80
2023/03/09 05:07:10;;;;;;;9.15;3.05;;;;;;;11.64;56.95;96786.09;4488601;31;20100;-80
2023/03/09 05:09:35;;;;;;;9.73;3.53;;;;;;;11.53;57.29;96794.16;4502733;31;20102;-80
2023/03/09 05:12:01;;;;;;;14.20;2.87;;;;;;;11.54;57.44;96796.66;4502958;31;20106;-80
2023/03/09 05:14:26;;;;;;;9.60;2.85;;;;;;;11.55;57.03;96776.37;4502861;31;20092;-80
2023/03/09 05:16:52;;;;;;;11.77;3.85;;;;;;;11.47;57.60;96777.09;4488502;31;20156;-80
2023/03/09 05:19:21;;;;;;;8.02;2.97;;;;;;;11.57;57.25;96774.44;4475404;31;20463;-80
2023/03/09 05:21:46;;;;;;;11.05;2.90;;;;;;;11.66;57.03;96780.69;4502611;31;20144;-80
2023/03/09 05:24:12;;;;;;;11.82;3.08;;;;;;;11.51;57.23;96783.78;4488430;31;20149;-80
2023/03/09 05:26:37;;;;;;;10.15;3.25;;;;;;;11.48;57.46;96783.22;4502765;31;20122;-81
2023/03/09 05:29:03;;;;;;;10.68;3.10;;;;;;;11.74;56.69;96791.38;4488502;31;20087;-80
2023/03/09 05:31:28;;;;;;;10.00;3.30;;;;;;;11.49;57.55;96800.69;4502642;31;20112;-80
2023/03/09 05:33:54;;;;;;;10.75;3.03;;;;;;;11.46;57.46;96795.69;4488188;31;20108;-81
2023/03/09 05:36:22;;;;;;;9.65;3.25;;;;;;;11.54;57.46;96801.09;4502355;31;20096;-81
2023/03/09 05:38:48;;;;;;;;;;;;;;;11.67;56.97;96783.22;4487885;31;20087;-80
2023/03/09 05:41:13;;;;;;;12.80;3.67;;;;;;;11.78;56.83;96780.44;4502729;31;20022;-80
2023/03/09 05:43:41;;;;;;;13.75;3.97;;;;;;;11.82;56.77;96775.72;4502687;31;20088;-80
2023/03/09 05:46:11;;;;;;;9.20;2.70;;;;;;;11.85;56.65;96778.03;4502610;31;20534;-81
2023/03/09 05:48:37;;;;;;;10.77;3.10;;;;;;;12.13;56.00;96776.37;4488359;31;20083;-81
2023/03/09 05:51:03;;;;;;;10.02;3.00;;;;;;;11.88;56.69;96767.22;4488355;31;20083;-81
2023/03/09 05:53:28;;;;;;;9.93;3.25;;;;;;;11.74;57.17;96760.59;4488314;31;20127;-80
2023/03/09 05:55:56;;;;;;;10.40;3.37;;;;;;;11.38;58.22;96764.75;4502719;31;20436;-80
2023/03/09 05:58:21;;;;;;;8.98;2.72;;;;;;;11.88;57.08;96790.97;4502445;31;20146;-80
2023/03/09 06:00:46;;;;;;;11.63;3.20;;;;;;;11.78;57.37;96772.50;4502338;31;20359;-80
2023/03/09 06:03:12;;;;;;;11.05;3.25;;;;;;;11.99;56.67;96775.00;4502614;31;20083;-80
2023/03/09 06:05:37;;;;;;;8.77;2.30;;;;;;;11.85;57.17;96779.84;4502445;31;20397;-80
2023/03/09 06:08:03;;;;;;;9.88;3.10;;;;;;;11.98;56.66;96765.41;4502499;31;20103;-81
2023/03/09 06:10:29;;;;;;;10.45;2.90;;;;;;;11.76;57.48;96766.53;4502384;31;20076;-80
2023/03/09 06:12:54;;;;;;;11.45;2.83;;;;;;;12.14;56.47;96754.25;4502368;31;20155;-80
2023/03/09 06:15:20;;;;;;;10.13;3.00;;;;;;;12.32;56.01;96764.06;4502314;31;20100;-80
2023/03/09 06:17:45;;;;;;;8.38;2.35;;;;;;;11.89;57.00;96783.87;4502200;31;20068;-81
2023/03/09 06:20:11;;;;;;;11.10;3.15;;;;;;;12.30;56.13;96779.22;4502156;31;20068;-80
2023/03/09 06:22:36;;;;;;;12.90;2.83;;;;;;;12.28;55.95;96786.47;4487806;31;20478;-80
2023/03/09 06:25:02;;;;;;;13.48;3.20;;;;;;;12.31;56.12;96784.37;4502324;31;20115;-80
2023/03/09 06:27:27;;;;;;;7.85;2.47;;;;;;;12.54;55.44;96797.22;4502256;31;20085;-81
2023/03/09 06:29:54;;;;;;;11.10;2.67;;;;;;;12.33;56.02;96789.50;4502054;31;20098;-81
2023/03/09 06:32:20;;;;;;;11.77;3.10;;;;;;;12.28;56.26;96791.72;4487948;31;20100;-80
2023/03/09 06:34:45;;;;;;;11.30;2.70;;;;;;;12.29;56.32;96788.97;4502079;31;20145;-81
2023/03/09 06:37:11;;;;;;;10.65;3.40;;;;;;;12.56;55.56;96789.97;4502027;31;20404;-81
2023/03/09 06:39:36;;;;;;;10.93;2.80;;;;;;;12.50;55.67;96786.09;4487571;31;20087;-81
2023/03/09 06:42:02;;;;;;;9.90;3.05;;;;;;;12.36;56.16;96789.19;4501881;31;20129;-80
2023/03/09 06:44:27;;;;;;;12.52;3.22;;;;;;;12.48;55.92;96792.53;4487648;31;20414;-80
2023/03/09 06:46:53;;;;;;;10.60;3.05;;;;;;;12.53;55.85;96783.16;4501841;31;20118;-80
2023/03/09 06:49:18;;;;;;;11.57;3.53;;;;;;;12.55;55.58;96796.22;4502964;31;20107;-80
2023/03/09 06:51:44;;;;;;;9.95;3.00;;;;;;;12.93;54.67;96807.59;4503926;31;20121;-80
2023/03/09 06:54:09;;;;;;;11.15;2.80;;;;;;;12.41;55.89;96804.62;4504001;31;20096;-81
2023/03/09 06:56:35;;;;;;;12.48;2.80;;;;;;;12.43;56.30;96813.25;4489371;31;20115;-81
2023/03/09 06:59:00;;;;;;;9.55;2.60;;;;;;;12.36;56.16;96802.41;4503684;31;20132;-80
2023/03/09 07:01:26;;;;;;;9.18;2.60;;;;;;;13.03;54.77;96811.03;4503908;31;20123;-81
2023/03/09 07:03:51;;;;;;;8.90;2.65;;;;;;;12.98;54.68;96805.38;4503842;31;20111;-80
2023/03/09 07:06:16;;;;;;;9.07;2.62;;;;;;;13.18;54.25;96806.91;4503842;31;20111;-80
2023/03/09 07:08:42;;;;;;;9.65;2.60;;;;;;;12.77;55.50;96803.78;4503694;31;20123;-80
2023/03/09 07:11:08;;;;;;;10.73;2.85;;;;;;;12.99;54.94;96807.00;4503745;31;20118;-80
2023/03/09 07:13:33;;;;;;;9.60;2.78;;;;;;;13.08;54.72;96807.97;4489355;31;20516;-81
2023/03/09 07:16:03;;;;;;;11.60;2.72;;;;;;;13.28;54.05;96804.19;4503653;31;20151;-80
2023/03/09 07:18:29;;;;;;;10.85;2.87;;;;;;;13.08;54.53;96792.09;4503774;31;20080;-80
2023/03/09 07:20:55;;;;;;;8.52;2.30;;;;;;;12.96;55.10;96805.50;4476595;31;20152;-81
2023/03/09 07:23:20;;;;;;;9.65;2.70;;;;;;;12.97;55.07;96803.69;4504027;31;20141;-81
2023/03/09 07:25:45;;;;;;;8.85;2.40;;;;;;;12.47;56.18;96815.44;4504044;31;20119;-80
2023/03/09 07:28:11;;;;;;;10.35;2.45;;;;;;;13.15;54.71;96809.00;4503808;31;20103;-80
2023/03/09 07:30:37;;;;;;;9.07;2.65;;;;;;;13.33;54.17;96825.78;4503958;31;20119;-80
2023/03/09 07:33:03;;;;;;;9.65;2.65;;;;;;;13.49;53.70;96835.69;4489734;31;20100;-80
2023/03/09 07:35:29;;;;;;;8.50;2.40;;;;;;;13.34;53.97;96837.19;4489485;31;20129;-80
2023/03/09 07:37:54;;;;;;;9.00;2.25;;;;;;;13.17;54.52;96855.47;4503898;31;20407;-80
2023/03/09 07:40:20;;;;;;;12.02;3.78;;;;;;;13.23;54.51;96853.22;4489185;31;20104;-80
2023/03/09 07:42:50;;;;;;;7.68;2.20;;;;;;;13.17;54.72;96850.19;4489576;31;20091;-80
2023/03/09 07:45:16;;;;;;;9.23;2.30;;;;;;;13.37;54.39;96852.75;4503547;31;20098;-80
2023/03/09 07:47:42;;;;;;;7.75;2.45;;;;;;;12.92;55.53;96843.78;4503847;31;20359;-80
2023/03/09 07:50:09;;;;;;;10.05;2.47;;;;;;;13.02;55.21;96838.44;4503930;31;20355;-80
2023/03/09 07:52:34;;;;;;;7.20;2.30;;;;;;;13.05;55.45;96830.22;4503726;31;20088;-81
2023/03/09 07:55:00;;;;;;;8.70;2.70;;;;;;;13.29;54.84;96840.25;4503888;31;20106;-80
2023/03/09 07:57:30;;;;;;;9.70;2.47;;;;;;;13.52;54.34;96840.69;4489414;31;20099;-80
2023/03/09 07:59:56;;;;;;;6.32;1.92;;;;;;;13.74;54.03;96849.16;4502848;31;20123;-81
2023/03/09 08:02:22;;;;;;;7.70;2.12;;;;;;;13.67;54.14;96846.25;4503745;31;20133;-81
2023/03/09 08:04:47;;;;;;;9.27;2.25;;;;;;;13.73;54.22;96842.19;4503596;31;20080;-80
2023/03/09 08:07:13;;;;;;;7.75;2.15;;;;;;;13.32;55.48;96834.69;4489278;31;20075;-81
2023/03/09 08:09:38;;;;;;;9.27;2.30;;;;;;;13.64;54.65;96822.78;4503624;31;20106;-81
2023/03/09 08:12:04;;;;;;;5.97;2.00;;;;;;;13.59;54.57;96826.84;4503687;31;20080;-80
2023/03/09 08:14:30;;;;;;;8.30;2.20;;;;;;;13.40;55.10;96822.53;4503663;31;20084;-80
2023/03/09 08:16:55;;;;;;;8.35;2.00;;;;;;;13.78;54.27;96829.34;4503495;31;20321;-80
2023/03/09 08:19:21;;;;;;;7.97;1.98;;;;;;;14.10;53.63;96836.72;4503529;31;20325;-80
2023/03/09 08:21:48;;;;;;;8.23;2.20;;;;;;;14.03;54.08;96850.75;4503484;31;20478;-80
2023/03/09 08:24:14;;;;;;;9.63;2.33;;;;;;;13.60;54.94;96863.75;4503556;31;20118;-80
2023/03/09 08:26:40;;;;;;;9.95;2.12;;;;;;;13.80;54.47;96871.53;4503623;31;20094;-80
2023/03/09 08:29:05;;;;;;;7.65;2.03;;;;;;;13.86;54.23;96868.28;4503391;31;20096;-80
2023/03/09 08:31:31;;;;;;;14.27;2.50;;;;;;;14.08;53.64;96885.50;4489184;31;20102;-81
2023/03/09 08:33:56;;;;;;;7.62;1.95;;;;;;;13.74;54.41;96878.25;4503466;31;20145;-80
2023/03/09 08:36:22;;;;;;;7.95;1.90;;;;;;;14.08;53.67;96866.97;4503415;31;20104;-80
2023/03/09 08:38:49;;;;;;;8.18;2.10;;;;;;;13.98;53.70;96863.59;4503424;31;20116;-80
2023/03/09 08:41:15;;;;;;;7.93;2.08;;;;;;;14.10;53.37;96849.97;4503274;31;20156;-80
2023/03/09 08:43:40;;;;;;;8.15;2.28;;;;;;;14.05;53.73;96849.59;4503210;31;20116;-81
2023/03/09 08:46:06;;;;;;;6.47;1.87;;;;;;;14.33;52.84;96852.97;4488874;31;20568;-80
2023/03/09 08:48:31;;;;;;;6.82;1.55;;;;;;;14.44;52.55;96841.25;4503055;31;20423;-81
2023/03/09 08:51:04;;;;;;;7.43;2.00;;;;;;;14.49;52.36;96854.06;4503184;31;20098;-81
2023/03/09 08:53:30;;;;;;;9.95;2.00;;;;;;;14.71;52.00;96860.66;4488941;31;20080;-81
2023/03/09 08:55:56;;;;;;;8.55;1.98;;;;;;;14.68;51.83;96867.13;4503200;31;20098;-81
2023/03/09 08:58:21;;;;;;;5.70;1.60;;;;;;;15.08;51.03;96870.13;4503109;31;20095;-81
2023/03/09 09:00:47;;;;;;;6.95;1.67;;;;;;;15.21;50.66;96854.59;4502862;31;20134;-80
2023/03/09 09:03:13;;;;;;;6.57;1.60;;;;;;;14.89;51.24;96853.50;4503119;31;20135;-81
2023/03/09 09:05:38;;;;;;;8.65;2.12;;;;;;;15.36;50.29;96864.62;4503009;31;20129;-81
2023/03/09 09:08:04;;;;;;;8.43;2.15;;;;;;;15.01;50.98;96862.00;4502967;31;20406;-81
2023/03/09 09:10:30;;;;;;;7.32;1.98;;;;;;;14.97;51.32;96865.09;4503078;31;20110;-81
2023/03/09 09:12:56;;;;;;;6.68;1.90;;;;;;;14.68;52.07;96861.81;4502709;31;20088;-81
2023/03/09 09:15:21;;;;;;;7.10;1.98;;;;;;;15.01;51.43;96858.47;4502999;31;20415;-81
2023/03/09 09:17:46;;;;;;;7.50;2.03;;;;;;;15.62;49.99;96864.50;4503054;31;20092;-81
2023/03/09 09:20:12;;;;;;;6.95;2.10;;;;;;;15.56;50.26;96886.41;4502824;31;20106;-81
2023/03/09 09:22:41;;;;;;;7.20;1.92;;;;;;;15.47;50.58;96882.88;4503036;31;20118;-80
2023/03/09 09:25:08;;;;;;;7.57;2.08;;;;;;;15.74;50.00;96889.78;4502967;31;20680;-81
2023/03/09 09:27:35;;;;;;;7.45;2.10;;;;;;;15.94;49.51;96889.50;4502983;31;20119;-81
2023/03/09 09:30:01;;;;;;;8.20;2.05;;;;;;;15.56;50.19;96905.78;4502913;31;20588;-81
2023/03/09 09:32:27;;;;;;;6.97;1.90;;;;;;;16.06;49.27;96896.97;4502632;31;20092;-81
2023/03/09 09:34:53;;;;;;;8.13;2.25;;;;;;;16.52;47.97;96899.13;4502655;31;20071;-81
2023/03/09 09:37:18;;;;;;;7.12;2.00;;;;;;;16.77;47.22;96891.13;4502605;31;20092;-81
2023/03/09 09:39:44;;;;;;;6.45;2.00;;;;;;;16.64;47.54;96891.63;4488154;31;20100;-81
2023/03/09 09:42:23;;;;;;;6.65;1.90;;;;;;;17.02;46.81;96890.09;4502662;31;20089;-81
2023/03/09 09:44:49;;;;;;;7.03;2.15;;;;;;;17.12;46.90;96897.88;4488226;31;20076;-81
2023/03/09 09:47:19;;;;;;;6.75;1.80;;;;;;;17.00;46.78;96901.91;4488292;31;20100;-81
2023/03/09 09:49:48;;;;;;;8.20;1.80;;;;;;;16.63;47.47;96904.13;4488322;31;20118;-81
2023/03/09 09:52:40;;;;;;;5.45;1.80;;;;;;;17.05;46.65;96899.56;4488121;31;20088;-81
2023/03/09 09:55:08;;;;;;;6.93;1.80;;;;;;;17.13;46.81;96904.03;4502571;31;20076;-81
2023/03/09 09:57:36;;;;;;;6.72;1.80;;;;;;;17.08;46.50;96889.41;4502500;31;20124;-81
2023/03/09 10:00:22;;;;;;;8.18;1.70;;;;;;;17.28;46.35;96894.31;4502267;31;20131;-81
2023/03/09 10:03:06;;;;;;;6.78;1.75;;;;;;;17.06;46.78;96901.22;4488128;31;20084;-81
2023/03/09 10:05:55;;;;;;;7.05;1.67;;;;;;;17.53;45.79;96903.03;4502381;31;20107;-81
2023/03/09 10:08:21;;;;;;;5.53;1.65;;;;;;;17.25;46.50;96921.28;4488214;31;20092;-81
2023/03/09 10:10:47;;;;;;;7.05;1.90;;;;;;;17.34;46.39;96925.56;4502382;31;20119;-81
2023/03/09 10:13:27;;;;;;;5.30;1.42;;;;;;;17.65;45.91;96922.97;4488175;31;20094;-81
2023/03/09 10:15:53;;;;;;;8.50;2.25;;;;;;;17.52;46.17;96927.16;4502607;31;20075;-81
2023/03/09 10:18:28;;;;;;;7.18;1.50;;;;;;;17.69;45.90;96926.94;4488166;31;20447;-81
2023/03/09 10:20:54;;;;;;;6.87;1.67;;;;;;;17.51;46.54;96910.34;4502537;31;20092;-81
2023/03/09 10:23:32;;;;;;;6.15;1.67;;;;;;;17.69;46.17;96910.94;4501646;31;20108;-82
2023/03/09 10:26:04;;;;;;;5.18;1.50;;;;;;;17.95;45.25;96928.47;4487825;31;20071;-82
2023/03/09 10:28:35;;;;;;;6.95;1.83;;;;;;;17.75;45.35;96928.06;4487709;31;20104;-81
2023/03/09 10:31:25;;;;;;;5.20;1.42;;;;;;;17.77;45.47;96923.41;4474631;31;20170;-81
2023/03/09 10:33:56;;;;;;;5.50;1.37;;;;;;;18.22;44.70;96926.31;4487775;31;20394;-82
2023/03/09 10:36:29;;;;;;;3.92;1.27;;;;;;;18.18;44.40;96935.66;4502033;31;20094;-82
2023/03/09 10:38:56;;;;;;;6.25;1.40;;;;;;;18.22;44.42;96939.63;4487516;31;20493;-82
2023/03/09 10:41:22;;;;;;;3.37;1.30;;;;;;;17.89;45.28;96945.16;4502065;31;20138;-81
2023/03/09 10:43:48;;;;;;;5.00;1.50;;;;;;;18.40;44.38;96940.16;4501878;31;20092;-82
2023/03/09 10:46:16;;;;;;;5.53;1.52;;;;;;;18.56;43.93;96949.88;4487644;31;20075;-81
2023/03/09 10:48:43;;;;;;;5.05;1.62;;;;;;;17.95;45.09;96949.78;4502215;31;20432;-81
2023/03/09 10:51:41;;;;;;;6.05;1.60;;;;;;;18.49;44.19;96948.09;4501982;31;20144;-81
2023/03/09 10:54:33;;;;;;;5.28;1.30;;;;;;;18.74;43.28;96948.72;4408735;32;20106;-81
2023/03/09 10:56:58;;;;;;;6.50;1.90;;;;;;;18.16;43.73;96946.50;4418460;32;20167;-81
2023/03/09 10:59:25;;;;;;;8.25;1.75;;;;;;;18.25;43.12;96957.91;4421249;32;20412;-81
2023/03/09 11:01:53;;;;;;;5.95;1.87;;;;;;;18.12;43.65;96955.00;4421592;32;20116;-81
2023/03/09 11:04:21;;;;;;;6.70;1.90;;;;;;;18.62;42.72;96949.16;4421364;32;20093;-81
2023/03/09 11:06:49;;;;;;;5.95;1.60;;;;;;;17.91;43.92;96945.81;4421591;32;20094;-81
2023/03/09 11:09:24;;;;;;;5.70;1.60;;;;;;;18.16;43.94;96951.00;4421340;32;20109;-81
2023/03/09 11:11:49;;;;;;;6.95;1.77;;;;;;;18.49;42.96;96948.94;4421511;32;20105;-81
2023/03/09 11:14:33;;;;;;;8.27;1.95;;;;;;;18.47;42.67;96937.59;4421257;32;20106;-81
2023/03/09 11:17:00;;;;;;;6.40;2.00;;;;;;;18.60;43.11;96953.84;4408587;32;20106;-81
2023/03/09 11:19:27;;;;;;;6.12;1.92;;;;;;;18.55;41.89;96953.53;4408571;32;20128;-81
2023/03/09 11:21:55;;;;;;;8.15;2.30;;;;;;;18.40;41.69;96947.31;4395931;32;20717;-81
2023/03/09 11:24:27;;;;;;;9.98;2.40;;;;;;;18.50;40.82;96942.56;4421197;32;20121;-80
2023/03/09 11:26:59;;;;;;;6.50;2.10;;;;;;;17.81;42.53;96955.81;4408499;32;20077;-81
2023/03/09 11:29:56;;;;;;;7.50;2.37;;;;;;;18.02;41.13;96957.91;4439013;31;20155;-81
2023/03/09 11:32:21;;;;;;;7.32;2.10;;;;;;;18.02;40.65;96952.56;4501176;31;20083;-81